Time;durP1;ratioP1;P1;durP2;ratioP2;P2;SDS_P1;SDS_P2;PMS_P1;PMS_P2;Temp;Humidity;BMP_temperature;BMP_pressure;BME280_temperature;BME280_humidity;BME280_pressure;Samples;Min_cycle;Max_cycle;Signal;HPM_P1;HPM_P2
2023/12/06 00:01:03;;;;;;;11.40;5.82;;;2.90;99.90;;;;;;5033568;28;20033;-50
2023/12/06 00:03:29;;;;;;;12.05;5.68;;;2.80;99.90;;;;;;5033386;28;20029;-50
2023/12/06 00:05:54;;;;;;;12.18;6.38;;;2.80;99.90;;;;;;5033591;28;20029;-50
2023/12/06 00:08:20;;;;;;;15.43;6.40;;;2.80;99.90;;;;;;5033538;28;20017;-50
2023/12/06 00:10:47;;;;;;;17.80;8.02;;;2.80;99.90;;;;;;5033479;28;20022;-48
2023/12/06 00:13:13;;;;;;;16.38;7.50;;;2.80;99.90;;;;;;5033309;28;20029;-47
2023/12/06 00:15:39;;;;;;;12.15;6.22;;;2.80;99.90;;;;;;5033044;28;20041;-48
2023/12/06 00:18:04;;;;;;;13.10;6.60;;;2.80;99.90;;;;;;5033133;28;20099;-52
2023/12/06 00:20:30;;;;;;;13.07;6.38;;;2.80;99.90;;;;;;5032967;28;20128;-46
2023/12/06 00:22:56;;;;;;;11.07;6.80;;;2.80;99.90;;;;;;5033171;28;20102;-49
2023/12/06 00:25:22;;;;;;;14.55;6.25;;;2.80;99.90;;;;;;5033323;28;20141;-49
2023/12/06 00:27:48;;;;;;;13.32;6.45;;;2.80;99.90;;;;;;5033190;28;20083;-46
2023/12/06 00:30:14;;;;;;;10.85;6.05;;;2.70;99.90;;;;;;5033080;28;20057;-46
2023/12/06 00:32:39;;;;;;;11.77;6.53;;;2.70;99.90;;;;;;5032772;28;20018;-46
2023/12/06 00:35:07;;;;;;;12.10;5.88;;;2.60;99.90;;;;;;5033276;28;20034;-58
2023/12/06 00:37:33;;;;;;;10.32;6.10;;;2.60;99.90;;;;;;5032756;28;20022;-46
2023/12/06 00:39:59;;;;;;;11.98;5.88;;;2.60;99.90;;;;;;5032934;28;20043;-46
2023/12/06 00:42:25;;;;;;;13.40;6.20;;;2.50;99.90;;;;;;5032713;28;20046;-52
2023/12/06 00:44:51;;;;;;;12.98;5.95;;;2.50;99.90;;;;;;5032701;28;20045;-50
2023/12/06 00:47:17;;;;;;;13.88;7.13;;;2.40;99.90;;;;;;5032645;28;20066;-50
2023/12/06 00:49:42;;;;;;;15.90;6.70;;;2.30;99.90;;;;;;5032638;28;20359;-51
2023/12/06 00:52:08;;;;;;;12.45;6.45;;;2.20;99.90;;;;;;5026256;28;20030;-56
2023/12/06 00:54:33;;;;;;;14.00;6.85;;;2.10;99.90;;;;;;5025353;28;20022;-48
2023/12/06 00:56:59;;;;;;;12.07;5.90;;;2.10;99.90;;;;;;5032502;28;20068;-56
2023/12/06 00:59:25;;;;;;;12.38;5.97;;;2.20;99.90;;;;;;5032569;28;20045;-53
2023/12/06 01:01:50;;;;;;;22.23;5.93;;;2.20;99.90;;;;;;5032456;28;20072;-57
2023/12/06 01:04:16;;;;;;;12.77;6.65;;;2.20;99.90;;;;;;5032441;28;20037;-48
2023/12/06 01:06:42;;;;;;;10.27;5.72;;;2.30;99.90;;;;;;5032396;28;20486;-50
2023/12/06 01:09:08;;;;;;;13.77;6.30;;;2.30;99.90;;;;;;5032289;28;20100;-55
2023/12/06 01:11:34;;;;;;;12.15;6.05;;;2.30;99.90;;;;;;5032478;28;20060;-55
2023/12/06 01:13:59;;;;;;;11.23;5.55;;;2.20;99.90;;;;;;5032258;28;20081;-49
2023/12/06 01:16:25;;;;;;;9.95;5.40;;;2.10;99.90;;;;;;5032190;28;20497;-45
2023/12/06 01:18:51;;;;;;;11.52;4.47;;;2.00;99.90;;;;;;5032133;28;20022;-45
2023/12/06 01:21:16;;;;;;;12.13;5.70;;;2.00;99.90;;;;;;5032067;28;20037;-45
2023/12/06 01:23:42;;;;;;;15.63;5.47;;;2.00;99.90;;;;;;5032088;28;20108;-50
2023/12/06 01:26:08;;;;;;;9.20;5.03;;;2.00;99.90;;;;;;5032015;28;20097;-49
2023/12/06 01:28:33;;;;;;;9.93;5.30;;;2.00;99.90;;;;;;5032170;28;20076;-53
2023/12/06 01:30:59;;;;;;;8.60;4.80;;;2.00;99.90;;;;;;5031854;28;20373;-50
2023/12/06 01:33:24;;;;;;;9.90;5.15;;;2.00;99.90;;;;;;5032052;28;20029;-47
2023/12/06 01:35:50;;;;;;;9.32;5.40;;;1.90;99.90;;;;;;5031172;28;20032;-54
2023/12/06 01:38:16;;;;;;;12.38;5.13;;;1.90;99.90;;;;;;5031721;28;20029;-51
2023/12/06 01:40:42;;;;;;;13.80;5.18;;;1.80;99.90;;;;;;5031516;28;20053;-52
2023/12/06 01:43:09;;;;;;;14.90;6.35;;;1.80;99.90;;;;;;5031785;28;20018;-46
2023/12/06 01:45:35;;;;;;;17.23;6.25;;;1.80;99.90;;;;;;5031455;28;20528;-49
2023/12/06 01:48:02;;;;;;;16.20;6.35;;;1.80;99.90;;;;;;5031535;28;20045;-51
2023/12/06 01:50:28;;;;;;;13.18;6.07;;;1.80;99.90;;;;;;5031689;28;20072;-55
2023/12/06 01:52:58;;;;;;;12.60;5.70;;;1.70;99.90;;;;;;5018928;28;20041;-50
2023/12/06 01:55:24;;;;;;;12.10;5.90;;;1.50;99.90;;;;;;5030980;28;20037;-57
2023/12/06 01:57:50;;;;;;;11.38;5.60;;;1.40;99.90;;;;;;5031441;28;20414;-47
2023/12/06 02:00:16;;;;;;;14.30;6.05;;;1.20;99.90;;;;;;5031264;28;20052;-51
2023/12/06 02:02:43;;;;;;;14.05;7.05;;;1.20;99.90;;;;;;5031370;28;20176;-51
2023/12/06 02:05:09;;;;;;;13.98;5.90;;;1.40;99.90;;;;;;5031202;28;20457;-56
2023/12/06 02:07:35;;;;;;;19.42;6.13;;;1.60;99.90;;;;;;5031507;28;20029;-53
2023/12/06 02:10:02;;;;;;;14.52;6.95;;;1.70;99.90;;;;;;5031378;28;20033;-49
2023/12/06 02:12:28;;;;;;;11.48;5.95;;;1.70;99.90;;;;;;5031027;28;20032;-51
2023/12/06 02:14:57;;;;;;;12.63;6.95;;;1.70;99.90;;;;;;5013414;28;20029;-50
2023/12/06 02:17:23;;;;;;;13.25;6.00;;;1.80;99.90;;;;;;5031205;28;20021;-49
2023/12/06 02:19:49;;;;;;;12.70;7.20;;;1.80;99.90;;;;;;5031090;28;20394;-49
2023/12/06 02:22:16;;;;;;;12.43;5.90;;;1.80;99.90;;;;;;5030926;28;20108;-49
2023/12/06 02:24:42;;;;;;;11.82;6.00;;;1.80;99.90;;;;;;5030965;28;20024;-46
2023/12/06 02:27:07;;;;;;;14.52;6.13;;;1.90;99.90;;;;;;5030729;28;20030;-46
2023/12/06 02:29:33;;;;;;;12.55;6.38;;;1.90;99.90;;;;;;5028478;28;20365;-46
2023/12/06 02:31:58;;;;;;;8.93;4.85;;;2.00;99.90;;;;;;5030983;28;20030;-49
2023/12/06 02:34:26;;;;;;;6.70;4.07;;;2.10;99.90;;;;;;5030627;28;20026;-46
2023/12/06 02:36:57;;;;;;;8.23;5.38;;;2.20;99.90;;;;;;5030849;28;20021;-50
2023/12/06 02:39:26;;;;;;;21.92;5.35;;;2.20;99.90;;;;;;5030620;28;20486;-52
2023/12/06 02:41:52;;;;;;;11.30;5.83;;;2.30;99.90;;;;;;5030777;28;20025;-51
2023/12/06 02:44:17;;;;;;;11.15;5.57;;;2.40;99.90;;;;;;5030518;28;20095;-47
2023/12/06 02:46:44;;;;;;;12.02;5.38;;;2.40;99.90;;;;;;5029660;28;20029;-53
2023/12/06 02:49:09;;;;;;;11.30;5.45;;;2.50;99.90;;;;;;5030706;28;20037;-47
2023/12/06 02:51:35;;;;;;;11.32;5.65;;;2.50;99.90;;;;;;5030388;28;20087;-51
2023/12/06 02:54:01;;;;;;;11.02;5.40;;;2.60;99.90;;;;;;5030645;28;20021;-50
2023/12/06 02:56:26;;;;;;;13.65;6.65;;;2.70;99.90;;;;;;5030301;28;20021;-50
2023/12/06 02:58:52;;;;;;;13.00;5.88;;;2.90;99.90;;;;;;5030627;28;20021;-46
2023/12/06 03:01:18;;;;;;;15.85;6.28;;;2.80;99.90;;;;;;5030136;28;20182;-52
2023/12/06 03:03:43;;;;;;;12.77;6.05;;;2.70;99.90;;;;;;5030590;28;20022;-49
2023/12/06 03:06:09;;;;;;;10.95;5.78;;;2.60;99.90;;;;;;5030346;28;20494;-48
2023/12/06 03:08:35;;;;;;;8.98;4.90;;;2.50;99.90;;;;;;5030321;28;20025;-52
2023/12/06 03:11:00;;;;;;;8.00;4.95;;;2.40;99.90;;;;;;5030186;28;20026;-46
2023/12/06 03:13:26;;;;;;;10.88;5.05;;;2.30;99.90;;;;;;5030335;28;20087;-46
2023/12/06 03:15:51;;;;;;;10.85;5.28;;;2.20;99.90;;;;;;5030348;28;20392;-46
2023/12/06 03:18:17;;;;;;;9.10;5.18;;;2.20;99.90;;;;;;5030088;28;20021;-50
2023/12/06 03:20:43;;;;;;;10.80;4.85;;;2.10;99.90;;;;;;5030184;28;20029;-48
2023/12/06 03:23:08;;;;;;;11.68;4.13;;;2.10;99.90;;;;;;5030268;28;20033;-56
2023/12/06 03:25:34;;;;;;;9.60;4.43;;;2.10;99.90;;;;;;5028934;28;20026;-50
2023/12/06 03:27:59;;;;;;;8.25;4.45;;;2.10;99.90;;;;;;5030314;28;20010;-55
2023/12/06 03:30:25;;;;;;;9.48;4.20;;;2.00;99.90;;;;;;5030169;28;20029;-50
2023/12/06 03:32:51;;;;;;;9.02;5.18;;;2.00;99.90;;;;;;5030319;28;20030;-49
2023/12/06 03:35:17;;;;;;;7.88;4.25;;;2.00;99.90;;;;;;5030206;28;20029;-52
2023/12/06 03:37:43;;;;;;;10.88;5.07;;;2.00;99.90;;;;;;5030113;28;20067;-48
2023/12/06 03:40:09;;;;;;;9.85;4.28;;;2.10;99.90;;;;;;5030049;28;20390;-46
2023/12/06 03:42:34;;;;;;;14.55;4.97;;;2.10;99.90;;;;;;5030152;28;20030;-48
2023/12/06 03:45:00;;;;;;;7.60;3.88;;;2.20;99.90;;;;;;5029942;28;20508;-45
2023/12/06 03:47:26;;;;;;;8.18;4.15;;;2.20;99.90;;;;;;5030019;28;20551;-49
2023/12/06 03:49:52;;;;;;;11.93;4.30;;;2.20;99.90;;;;;;5012278;28;20041;-55
2023/12/06 03:52:18;;;;;;;7.28;3.97;;;2.20;99.90;;;;;;5029992;28;20497;-48
2023/12/06 03:54:44;;;;;;;7.72;3.92;;;2.20;99.90;;;;;;5021268;28;20026;-46
2023/12/06 03:57:09;;;;;;;7.10;3.92;;;2.20;99.90;;;;;;5030365;28;20091;-46
2023/12/06 03:59:35;;;;;;;10.50;4.55;;;2.20;99.90;;;;;;5033342;28;20088;-53
2023/12/06 04:02:00;;;;;;;6.63;3.80;;;2.20;99.90;;;;;;5033805;28;20036;-49
2023/12/06 04:04:26;;;;;;;7.90;4.22;;;2.20;99.90;;;;;;5033518;28;20497;-50
2023/12/06 04:06:52;;;;;;;10.10;4.43;;;2.30;99.90;;;;;;5033573;28;20029;-50
2023/12/06 04:09:18;;;;;;;6.43;3.78;;;2.30;99.90;;;;;;5033273;28;20021;-48
2023/12/06 04:11:44;;;;;;;6.72;3.58;;;2.40;99.90;;;;;;5033484;28;20064;-52
2023/12/06 04:14:10;;;;;;;6.63;4.03;;;2.40;99.90;;;;;;5033675;28;20120;-47
2023/12/06 04:16:36;;;;;;;7.70;3.60;;;2.40;99.90;;;;;;5033459;28;20041;-46
2023/12/06 04:19:02;;;;;;;8.52;4.10;;;2.30;99.90;;;;;;5033351;28;20031;-51
2023/12/06 04:21:28;;;;;;;6.93;3.97;;;2.20;99.90;;;;;;5033161;28;20033;-50
2023/12/06 04:23:54;;;;;;;7.28;3.63;;;2.10;99.90;;;;;;5033273;28;20025;-50
2023/12/06 04:26:20;;;;;;;6.28;3.22;;;2.10;99.90;;;;;;5033142;28;20112;-46
2023/12/06 04:28:46;;;;;;;6.90;3.08;;;2.00;99.90;;;;;;5033268;28;20017;-48
2023/12/06 04:31:11;;;;;;;5.30;3.60;;;1.80;99.90;;;;;;5033191;28;20105;-49
2023/12/06 04:33:37;;;;;;;6.68;3.78;;;1.70;99.90;;;;;;5033015;28;20084;-46
2023/12/06 04:36:03;;;;;;;6.70;3.45;;;1.60;99.90;;;;;;5033020;28;20115;-46
2023/12/06 04:38:29;;;;;;;5.45;3.00;;;1.60;99.90;;;;;;5032918;28;20037;-49
2023/12/06 04:40:55;;;;;;;5.75;3.10;;;1.50;99.90;;;;;;5032794;28;20029;-48
2023/12/06 04:43:21;;;;;;;6.50;3.33;;;1.50;99.90;;;;;;5032943;28;20080;-53
2023/12/06 04:45:46;;;;;;;8.25;3.80;;;1.50;99.90;;;;;;5032778;28;20038;-54
2023/12/06 04:48:12;;;;;;;7.07;3.47;;;1.50;99.90;;;;;;5032864;28;20392;-53
2023/12/06 04:50:37;;;;;;;7.93;3.58;;;1.60;99.90;;;;;;5032670;28;20021;-46
2023/12/06 04:53:03;;;;;;;5.95;3.50;;;1.60;99.90;;;;;;5032678;28;20034;-51
2023/12/06 04:55:29;;;;;;;7.05;3.97;;;1.50;99.90;;;;;;5032677;28;20026;-50
2023/12/06 04:57:54;;;;;;;8.55;3.22;;;1.50;99.90;;;;;;5032294;28;20025;-48
2023/12/06 05:00:21;;;;;;;6.85;3.78;;;1.40;99.90;;;;;;5032499;28;20052;-49
2023/12/06 05:02:47;;;;;;;7.70;4.13;;;1.30;99.90;;;;;;5032464;28;20021;-54
2023/12/06 05:05:13;;;;;;;6.22;3.70;;;1.30;99.90;;;;;;5032567;28;20363;-47
2023/12/06 05:07:39;;;;;;;6.20;3.42;;;1.20;99.90;;;;;;5032166;28;20367;-51
2023/12/06 05:10:05;;;;;;;8.65;3.92;;;1.00;99.90;;;;;;5031449;28;20124;-48
2023/12/06 05:12:31;;;;;;;6.28;3.50;;;1.00;99.90;;;;;;5032202;28;20032;-45
2023/12/06 05:14:56;;;;;;;7.97;4.13;;;1.00;99.90;;;;;;5032289;28;20025;-46
2023/12/06 05:17:22;;;;;;;6.97;3.80;;;1.10;99.90;;;;;;5032394;28;20048;-53
2023/12/06 05:19:48;;;;;;;6.05;3.55;;;1.10;99.90;;;;;;5031779;28;20025;-48
2023/12/06 05:22:14;;;;;;;8.50;3.40;;;1.10;99.90;;;;;;5032013;28;20071;-47
2023/12/06 05:24:40;;;;;;;11.32;3.92;;;1.20;99.90;;;;;;5031829;28;20021;-48
2023/12/06 05:27:05;;;;;;;9.70;3.92;;;1.10;99.90;;;;;;5032165;28;20069;-46
2023/12/06 05:29:34;;;;;;;5.32;3.30;;;1.00;99.90;;;;;;5031874;28;20045;-48
2023/12/06 05:31:59;;;;;;;10.02;3.58;;;1.00;99.90;;;;;;5031845;28;20017;-46
2023/12/06 05:34:25;;;;;;;9.98;3.78;;;0.90;99.90;;;;;;5031698;28;20079;-57
2023/12/06 05:36:51;;;;;;;6.30;3.22;;;0.90;99.90;;;;;;5031831;28;20053;-49
2023/12/06 05:39:17;;;;;;;7.47;3.85;;;0.90;99.90;;;;;;5031667;28;20112;-52
2023/12/06 05:41:42;;;;;;;6.85;3.33;;;0.80;99.90;;;;;;5032059;28;20359;-50
2023/12/06 05:44:08;;;;;;;7.38;4.20;;;0.80;99.90;;;;;;5031418;28;20044;-53
2023/12/06 05:46:34;;;;;;;7.95;2.85;;;0.80;99.90;;;;;;5031640;28;20092;-49
2023/12/06 05:48:59;;;;;;;7.70;3.20;;;0.80;99.90;;;;;;5031640;28;20045;-49
2023/12/06 05:51:25;;;;;;;6.03;3.38;;;0.90;99.90;;;;;;5031498;28;20083;-53
2023/12/06 05:53:52;;;;;;;8.80;3.70;;;1.00;99.90;;;;;;5031812;28;20049;-50
2023/12/06 05:56:18;;;;;;;7.18;4.25;;;1.00;99.90;;;;;;5031426;28;20485;-54
2023/12/06 05:58:43;;;;;;;6.65;3.70;;;0.90;99.90;;;;;;5031537;28;20031;-48
2023/12/06 06:01:09;;;;;;;5.90;2.90;;;0.80;99.90;;;;;;5031233;28;20041;-51
2023/12/06 06:03:35;;;;;;;5.70;2.70;;;0.80;99.90;;;;;;5031358;28;20479;-46
2023/12/06 06:06:06;;;;;;;9.57;3.65;;;0.70;99.90;;;;;;5031106;28;20035;-48
2023/12/06 06:08:32;;;;;;;8.68;3.85;;;0.50;99.90;;;;;;5031371;28;20026;-46
2023/12/06 06:10:58;;;;;;;12.10;3.72;;;0.50;99.90;;;;;;5031332;28;20474;-52
2023/12/06 06:13:28;;;;;;;8.02;3.80;;;0.40;99.90;;;;;;5031029;28;20032;-52
2023/12/06 06:15:54;;;;;;;6.13;3.63;;;0.40;99.90;;;;;;5031180;28;20025;-49
2023/12/06 06:18:20;;;;;;;7.68;3.67;;;0.30;99.90;;;;;;5030934;28;20057;-51
2023/12/06 06:20:46;;;;;;;8.48;4.28;;;0.40;99.90;;;;;;5031023;28;20419;-52
2023/12/06 06:23:12;;;;;;;7.40;3.20;;;0.40;99.90;;;;;;5030931;28;20060;-47
2023/12/06 06:25:37;;;;;;;7.63;3.78;;;0.50;99.90;;;;;;5030992;28;20390;-47
2023/12/06 06:28:03;;;;;;;7.63;3.60;;;0.60;99.90;;;;;;5030816;28;20079;-46
2023/12/06 06:30:29;;;;;;;7.80;4.10;;;0.60;99.90;;;;;;5031438;28;20536;-49
2023/12/06 06:32:54;;;;;;;8.88;4.43;;;0.50;99.90;;;;;;5030828;28;20052;-49
2023/12/06 06:35:20;;;;;;;7.07;3.53;;;0.40;99.90;;;;;;5030754;28;20494;-49
2023/12/06 06:37:48;;;;;;;6.65;3.85;;;0.30;99.90;;;;;;5030713;28;20525;-49
2023/12/06 06:40:15;;;;;;;5.53;3.15;;;0.30;99.90;;;;;;5030685;28;20105;-48
2023/12/06 06:42:41;;;;;;;6.03;3.35;;;0.20;99.90;;;;;;5030710;28;20264;-46
2023/12/06 06:45:10;;;;;;;7.97;3.50;;;0.20;99.90;;;;;;5030528;28;20103;-51
2023/12/06 06:47:37;;;;;;;9.82;4.00;;;0.10;99.90;;;;;;5030701;28;20363;-48
2023/12/06 06:50:04;;;;;;;6.82;3.30;;;0.10;99.90;;;;;;5030572;28;20029;-50
2023/12/06 06:52:32;;;;;;;6.32;3.38;;;0.10;99.90;;;;;;5030506;28;20024;-47
2023/12/06 06:54:57;;;;;;;7.00;3.78;;;0.10;99.90;;;;;;5030636;28;20021;-45
2023/12/06 06:57:23;;;;;;;8.25;3.90;;;0.10;99.90;;;;;;5030420;28;20021;-52
2023/12/06 06:59:49;;;;;;;7.97;3.67;;;0.10;99.90;;;;;;5016488;28;20045;-49
2023/12/06 07:02:16;;;;;;;7.35;3.20;;;0.10;99.90;;;;;;5030489;28;20101;-50
2023/12/06 07:04:42;;;;;;;13.25;4.70;;;0.20;99.90;;;;;;5030151;28;20497;-48
2023/12/06 07:07:08;;;;;;;9.35;4.95;;;0.20;99.90;;;;;;5030608;28;20037;-51
2023/12/06 07:09:34;;;;;;;6.85;4.22;;;0.20;99.90;;;;;;5029627;28;20021;-50
2023/12/06 07:11:59;;;;;;;8.82;4.72;;;0.20;99.90;;;;;;5030266;28;20029;-53
2023/12/06 07:14:25;;;;;;;12.60;4.97;;;0.20;99.90;;;;;;5030206;28;20104;-49
2023/12/06 07:16:51;;;;;;;9.85;4.85;;;0.20;99.90;;;;;;5030063;28;20071;-53
2023/12/06 07:19:16;;;;;;;9.50;4.45;;;0.20;99.90;;;;;;5030249;28;20030;-49
2023/12/06 07:21:42;;;;;;;9.45;4.50;;;0.20;99.90;;;;;;5029968;28;20060;-52
2023/12/06 07:24:07;;;;;;;11.18;4.47;;;0.20;99.90;;;;;;5030414;28;20026;-50
2023/12/06 07:26:33;;;;;;;9.20;4.88;;;0.20;99.90;;;;;;5029923;28;20022;-45
2023/12/06 07:28:59;;;;;;;11.68;5.03;;;0.10;99.90;;;;;;5030301;28;20084;-46
2023/12/06 07:31:25;;;;;;;8.48;4.45;;;0.10;99.90;;;;;;5029627;28;20128;-45
2023/12/06 07:33:52;;;;;;;9.05;3.85;;;0.00;99.90;;;;;;5033330;28;20025;-50
2023/12/06 07:36:17;;;;;;;9.35;4.03;;;0.00;99.90;;;;;;5027349;28;20457;-54
2023/12/06 07:38:43;;;;;;;8.63;4.28;;;0.00;99.90;;;;;;5032196;28;20060;-46
2023/12/06 07:41:09;;;;;;;10.70;4.68;;;-0.10;99.90;;;;;;5033995;28;20033;-51
2023/12/06 07:43:35;;;;;;;9.40;4.45;;;0.00;99.90;;;;;;5033913;28;20038;-45
2023/12/06 07:46:02;;;;;;;9.07;4.70;;;0.00;99.90;;;;;;5033773;28;20029;-45
2023/12/06 07:48:28;;;;;;;9.23;4.60;;;-0.10;99.90;;;;;;5033873;28;20412;-51
2023/12/06 07:50:53;;;;;;;15.90;4.43;;;-0.10;99.90;;;;;;5033798;28;20026;-50
2023/12/06 07:53:19;;;;;;;8.65;4.60;;;-0.10;99.90;;;;;;5033831;28;20076;-47
2023/12/06 07:55:45;;;;;;;10.88;5.28;;;-0.10;99.90;;;;;;5033373;28;20498;-53
2023/12/06 07:58:11;;;;;;;11.75;5.90;;;-0.10;99.90;;;;;;5033599;28;20033;-47
2023/12/06 08:00:37;;;;;;;13.80;5.28;;;-0.10;99.90;;;;;;5033443;28;20045;-48
2023/12/06 08:03:03;;;;;;;8.00;3.85;;;0.00;99.90;;;;;;5032693;28;20053;-52
2023/12/06 08:05:29;;;;;;;13.00;4.32;;;0.00;99.90;;;;;;5028682;28;20044;-49
2023/12/06 08:07:55;;;;;;;8.13;4.40;;;0.00;99.90;;;;;;5028124;28;20029;-49
2023/12/06 08:10:25;;;;;;;9.00;3.80;;;0.00;99.90;;;;;;5033281;28;20041;-50
2023/12/06 08:12:53;;;;;;;11.82;4.80;;;0.00;99.90;;;;;;5032976;28;20076;-54
2023/12/06 08:15:20;;;;;;;12.18;5.40;;;0.10;99.90;;;;;;5033623;28;20026;-53
2023/12/06 08:17:46;;;;;;;14.13;6.10;;;0.20;99.90;;;;;;5033198;28;20040;-48
2023/12/06 08:20:12;;;;;;;10.82;5.28;;;0.40;99.90;;;;;;5033067;28;20025;-48
2023/12/06 08:22:38;;;;;;;8.88;4.90;;;0.40;99.90;;;;;;5030810;28;20025;-48
2023/12/06 08:25:04;;;;;;;11.75;5.07;;;0.50;99.90;;;;;;5030371;28;20053;-50
2023/12/06 08:27:30;;;;;;;9.07;4.28;;;0.60;99.90;;;;;;5032459;28;20039;-53
2023/12/06 08:29:56;;;;;;;12.82;5.93;;;0.80;99.90;;;;;;5031611;28;20083;-53
2023/12/06 08:32:22;;;;;;;10.82;6.03;;;1.40;99.90;;;;;;5033297;28;20033;-45
2023/12/06 08:34:48;;;;;;;12.45;6.63;;;2.30;99.90;;;;;;5032620;28;20026;-48
2023/12/06 08:37:14;;;;;;;13.07;6.93;;;3.10;99.90;;;;;;5032748;28;20025;-49
2023/12/06 08:39:39;;;;;;;13.20;6.38;;;3.40;99.90;;;;;;5032814;28;20029;-49
2023/12/06 08:42:06;;;;;;;15.05;7.32;;;4.00;99.90;;;;;;5032690;28;20474;-50
2023/12/06 08:44:32;;;;;;;15.15;6.90;;;4.50;99.90;;;;;;5031028;28;20057;-48
2023/12/06 08:46:58;;;;;;;11.40;5.35;;;5.30;99.90;;;;;;5032867;28;20029;-49
2023/12/06 08:49:23;;;;;;;9.05;4.78;;;6.00;99.90;;;;;;5032462;28;20029;-48
2023/12/06 08:51:49;;;;;;;9.18;4.80;;;6.50;99.90;;;;;;5032654;28;20559;-49
2023/12/06 08:54:15;;;;;;;9.00;4.45;;;6.30;99.90;;;;;;5032377;28;20025;-49
2023/12/06 08:56:40;;;;;;;8.68;4.18;;;5.80;99.90;;;;;;5032160;28;20116;-44
2023/12/06 08:59:06;;;;;;;8.35;3.90;;;5.20;99.90;;;;;;5031998;28;20028;-44
2023/12/06 09:01:32;;;;;;;10.57;4.57;;;4.50;99.90;;;;;;5032373;28;20519;-45
2023/12/06 09:03:57;;;;;;;7.53;3.80;;;4.00;99.90;;;;;;5032222;28;20028;-48
2023/12/06 09:06:23;;;;;;;7.28;3.97;;;3.60;99.90;;;;;;5032185;28;20037;-48
2023/12/06 09:08:49;;;;;;;8.60;4.57;;;3.40;99.90;;;;;;5032299;28;20473;-50
2023/12/06 09:11:19;;;;;;;8.52;4.30;;;3.10;99.90;;;;;;5031753;28;20018;-50
2023/12/06 09:13:45;;;;;;;7.93;4.00;;;3.10;99.90;;;;;;5030335;28;20182;-52
2023/12/06 09:16:11;;;;;;;7.38;3.30;;;2.80;99.90;;;;;;5030221;28;20097;-49
2023/12/06 09:18:36;;;;;;;9.35;3.80;;;2.60;99.90;;;;;;5030147;28;20045;-51
2023/12/06 09:21:04;;;;;;;6.88;3.70;;;2.50;99.90;;;;;;5030128;28;20473;-53
2023/12/06 09:23:31;;;;;;;9.77;4.45;;;2.40;99.90;;;;;;5030213;28;20026;-47
2023/12/06 09:25:56;;;;;;;7.97;3.70;;;2.40;99.90;;;;;;5032105;28;20036;-53
2023/12/06 09:28:22;;;;;;;8.23;4.10;;;2.30;99.90;;;;;;5031931;28;20018;-53
2023/12/06 09:30:48;;;;;;;6.60;3.65;;;2.40;99.90;;;;;;5032223;28;20029;-48
2023/12/06 09:33:13;;;;;;;7.35;3.28;;;2.40;99.90;;;;;;5030940;28;20040;-51
2023/12/06 09:35:40;;;;;;;6.93;4.30;;;2.40;99.90;;;;;;5031799;28;20036;-49
2023/12/06 09:38:05;;;;;;;7.82;4.28;;;2.50;99.90;;;;;;5031536;28;20076;-51
2023/12/06 09:40:31;;;;;;;8.23;4.53;;;2.50;99.90;;;;;;5031490;28;20568;-47
2023/12/06 09:43:02;;;;;;;7.47;4.35;;;2.60;99.90;;;;;;5031779;28;20101;-55
2023/12/06 09:45:29;;;;;;;11.73;4.82;;;2.70;99.90;;;;;;5030044;28;20383;-45
2023/12/06 09:47:55;;;;;;;8.82;4.32;;;2.80;99.90;;;;;;5027795;28;20017;-46
2023/12/06 09:50:21;;;;;;;7.50;4.18;;;3.00;99.90;;;;;;5031754;28;20018;-52
2023/12/06 09:52:51;;;;;;;7.82;4.32;;;3.00;99.90;;;;;;5031382;28;20053;-49
2023/12/06 09:55:20;;;;;;;8.43;4.70;;;3.00;99.90;;;;;;5030974;28;20065;-52
2023/12/06 09:57:48;;;;;;;11.05;5.03;;;3.20;99.90;;;;;;5031642;28;20037;-49
2023/12/06 10:00:14;;;;;;;9.00;4.55;;;3.50;99.90;;;;;;5031321;28;20041;-50
2023/12/06 10:02:57;;;;;;;10.48;5.65;;;4.40;99.90;;;;;;5031592;28;20029;-55
2023/12/06 10:05:22;;;;;;;9.20;5.35;;;6.40;99.90;;;;;;5030515;28;20018;-45
2023/12/06 10:07:49;;;;;;;9.38;5.05;;;8.60;99.90;;;;;;5031038;28;20017;-45
2023/12/06 10:10:18;;;;;;;11.70;4.45;;;10.10;99.90;;;;;;5031213;28;20415;-46
2023/12/06 10:12:52;;;;;;;6.22;3.60;;;11.50;99.90;;;;;;5031120;28;20084;-45
2023/12/06 10:15:19;;;;;;;8.43;4.03;;;12.50;99.90;;;;;;5031119;28;20033;-48
2023/12/06 10:17:45;;;;;;;8.38;3.78;;;12.20;99.90;;;;;;5030412;28;20014;-46
2023/12/06 10:20:12;;;;;;;6.65;3.97;;;11.40;99.90;;;;;;5030925;28;20041;-49
2023/12/06 10:22:37;;;;;;;6.90;3.78;;;10.60;99.90;;;;;;5030745;28;20369;-46
2023/12/06 10:25:06;;;;;;;6.97;4.15;;;9.50;99.90;;;;;;5030899;28;20573;-47
2023/12/06 10:27:32;;;;;;;8.27;4.07;;;8.90;99.90;;;;;;5030918;28;20033;-51
2023/12/06 10:29:59;;;;;;;10.65;4.55;;;8.50;99.90;;;;;;5030999;28;20022;-47
2023/12/06 10:32:26;;;;;;;9.40;3.92;;;9.20;99.90;;;;;;5030817;28;20036;-47
2023/12/06 10:34:54;;;;;;;7.07;3.65;;;10.90;99.90;;;;;;5030688;28;20036;-45
2023/12/06 10:37:22;;;;;;;9.50;4.82;;;12.50;99.90;;;;;;5030768;28;20018;-46
2023/12/06 10:40:06;;;;;;;12.05;5.88;;;13.80;99.90;;;;;;5030273;28;20030;-51
2023/12/06 10:42:36;;;;;;;16.25;8.82;;;15.30;99.90;;;;;;5028625;28;20083;-50
2023/12/06 10:45:03;;;;;;;10.25;5.53;;;16.50;99.90;;;;;;5030440;28;20077;-50
2023/12/06 10:47:29;;;;;;;7.30;3.10;;;17.70;99.90;;;;;;5030454;28;20033;-50
2023/12/06 10:49:56;;;;;;;4.10;2.53;;;18.30;99.90;;;;;;5030242;28;20386;-52
2023/12/06 10:52:23;;;;;;;5.63;2.88;;;18.80;99.90;;;;;;5030340;28;20026;-49
2023/12/06 10:54:50;;;;;;;5.70;2.90;;;19.00;99.90;;;;;;5030543;28;20057;-51
2023/12/06 10:57:17;;;;;;;6.45;2.60;;;18.30;96.00;;;;;;5030509;28;20026;-45
2023/12/06 10:59:45;;;;;;;5.15;2.58;;;18.20;96.90;;;;;;5029908;28;20517;-44
2023/12/06 11:02:12;;;;;;;6.20;2.60;;;18.40;97.30;;;;;;5030544;28;20038;-51
2023/12/06 11:04:45;;;;;;;5.20;2.10;;;18.80;99.50;;;;;;5030536;28;20021;-53
2023/12/06 11:07:14;;;;;;;4.88;2.13;;;19.10;98.00;;;;;;5029623;28;20429;-51
2023/12/06 11:10:09;;;;;;;8.30;3.10;;;19.90;97.20;;;;;;5030080;28;20036;-48
2023/12/06 11:13:32;;;;;;;6.20;2.38;;;20.50;95.10;;;;;;5021601;28;20034;-50
2023/12/06 11:16:28;;;;;;;4.80;2.67;;;20.70;94.30;;;;;;4930929;29;20484;-52
2023/12/06 11:18:54;;;;;;;6.90;3.05;;;21.50;95.30;;;;;;4930863;29;20489;-50
2023/12/06 11:21:22;;;;;;;6.40;3.38;;;21.30;93.20;;;;;;5010836;28;20532;-47
2023/12/06 11:23:48;;;;;;;4.75;3.00;;;21.50;92.50;;;;;;5030020;28;20033;-50
2023/12/06 11:26:14;;;;;;;6.70;2.78;;;21.20;93.60;;;;;;5030123;28;20013;-53
2023/12/06 11:28:41;;;;;;;5.55;2.60;;;21.40;92.60;;;;;;5030029;28;20021;-48
2023/12/06 11:31:11;;;;;;;6.97;2.50;;;21.50;92.20;;;;;;5029866;28;20022;-51
2023/12/06 11:33:37;;;;;;;5.40;2.88;;;21.40;91.40;;;;;;5030029;28;20502;-48
2023/12/06 11:36:04;;;;;;;4.78;2.55;;;21.70;90.60;;;;;;5029909;28;20022;-46
2023/12/06 11:38:35;;;;;;;6.43;2.92;;;21.50;90.00;;;;;;5029959;28;20021;-54
2023/12/06 11:41:02;;;;;;;5.97;2.63;;;21.40;89.40;;;;;;5029909;28;20074;-55
2023/12/06 11:43:32;;;;;;;6.38;3.00;;;22.00;87.70;;;;;;5029872;28;20018;-47
2023/12/06 11:46:16;;;;;;;5.55;2.33;;;22.00;83.90;;;;;;5030183;28;20021;-50
2023/12/06 11:48:52;;;;;;;8.40;2.80;;;20.80;86.20;;;;;;5024306;28;20030;-45
2023/12/06 11:51:19;;;;;;;5.45;2.70;;;20.50;87.80;;;;;;5018008;28;20086;-49
2023/12/06 11:53:45;;;;;;;5.32;3.10;;;19.90;85.10;;;;;;5029230;28;20052;-45
2023/12/06 11:56:11;;;;;;;5.20;2.42;;;19.70;90.10;;;;;;5029880;28;20017;-46
2023/12/06 11:58:38;;;;;;;9.15;3.92;;;19.60;89.90;;;;;;5029981;28;20116;-52
2023/12/06 12:01:04;;;;;;;6.15;2.83;;;19.10;87.10;;;;;;5029364;28;20033;-52
2023/12/06 12:03:33;;;;;;;9.77;2.65;;;19.90;89.10;;;;;;5029837;28;20026;-49
2023/12/06 12:05:59;;;;;;;6.53;3.05;;;20.00;86.10;;;;;;5029671;28;20272;-55
2023/12/06 12:08:27;;;;;;;7.97;2.72;;;19.50;84.50;;;;;;5012024;28;20022;-51
2023/12/06 12:10:53;;;;;;;4.47;2.67;;;18.80;86.00;;;;;;5029496;28;20029;-53
2023/12/06 12:13:22;;;;;;;7.70;2.70;;;18.90;89.10;;;;;;5029667;28;20433;-48
2023/12/06 12:15:56;;;;;;;8.27;2.92;;;18.40;90.80;;;;;;5029834;28;20108;-55
2023/12/06 12:18:25;;;;;;;5.50;2.88;;;18.80;89.50;;;;;;5017274;28;20037;-55
2023/12/06 12:20:50;;;;;;;6.50;2.45;;;18.80;87.10;;;;;;5033175;28;20045;-52
2023/12/06 12:23:16;;;;;;;5.28;2.50;;;18.90;87.30;;;;;;5033067;28;20030;-53
2023/12/06 12:25:46;;;;;;;7.75;2.47;;;18.90;87.80;;;;;;5033154;28;20083;-58
2023/12/06 12:28:18;;;;;;;7.75;2.83;;;18.80;85.70;;;;;;5033257;28;20029;-50
2023/12/06 12:30:50;;;;;;;3.88;2.33;;;18.70;90.20;;;;;;5033232;28;20128;-53
2023/12/06 12:33:18;;;;;;;4.65;2.60;;;19.40;89.80;;;;;;5032973;28;20021;-49
2023/12/06 12:35:44;;;;;;;7.18;2.80;;;19.70;85.50;;;;;;5033064;28;20084;-53
2023/12/06 12:38:10;;;;;;;8.02;2.25;;;19.90;86.90;;;;;;5032945;28;20482;-53
2023/12/06 12:40:37;;;;;;;5.80;2.55;;;20.00;83.20;;;;;;5032781;28;20045;-47
2023/12/06 12:43:04;;;;;;;6.88;2.60;;;19.40;84.60;;;;;;5032769;28;20022;-53
2023/12/06 12:45:30;;;;;;;6.32;3.05;;;19.00;88.50;;;;;;5032547;28;20045;-52
2023/12/06 12:47:57;;;;;;;4.10;2.40;;;18.30;88.30;;;;;;5032809;28;20022;-52